sensor_id;sensor_type;location;lat;lon;timestamp;P1;durP1;ratioP1;P2;durP2;ratioP2
75492;SDS011;64071;51.466;7.260;2022-10-16T00:01:23;0.50;;;0.50;;
75492;SDS011;64071;51.466;7.260;2022-10-16T00:03:51;1.02;;;0.30;;
75492;SDS011;64071;51.466;7.260;2022-10-16T00:06:17;0.90;;;0.50;;
75492;SDS011;64071;51.466;7.260;2022-10-16T00:08:44;0.52;;;0.52;;
75492;SDS011;64071;51.466;7.260;2022-10-16T00:13:41;0.85;;;0.50;;
75492;SDS011;64071;51.466;7.260;2022-10-16T00:16:08;0.40;;;0.40;;
75492;SDS011;64071;51.466;7.260;2022-10-16T00:18:34;1.10;;;0.50;;
75492;SDS011;64071;51.466;7.260;2022-10-16T00:21:09;0.70;;;0.50;;
75492;SDS011;64071;51.466;7.260;2022-10-16T00:23:40;0.60;;;0.47;;
75492;SDS011;64071;51.466;7.260;2022-10-16T00:26:07;0.77;;;0.40;;
75492;SDS011;64071;51.466;7.260;2022-10-16T00:28:41;1.17;;;0.68;;
75492;SDS011;64071;51.466;7.260;2022-10-16T00:31:07;0.55;;;0.52;;
75492;SDS011;64071;51.466;7.260;2022-10-16T00:33:35;1.05;;;0.50;;
75492;SDS011;64071;51.466;7.260;2022-10-16T00:36:02;0.52;;;0.40;;
75492;SDS011;64071;51.466;7.260;2022-10-16T00:38:29;1.15;;;0.60;;
75492;SDS011;64071;51.466;7.260;2022-10-16T00:40:55;0.90;;;0.50;;
75492;SDS011;64071;51.466;7.260;2022-10-16T00:43:41;0.60;;;0.50;;
75492;SDS011;64071;51.466;7.260;2022-10-16T00:46:22;0.40;;;0.40;;
75492;SDS011;64071;51.466;7.260;2022-10-16T00:48:50;0.50;;;0.40;;
75492;SDS011;64071;51.466;7.260;2022-10-16T00:53:49;0.40;;;0.38;;
75492;SDS011;64071;51.466;7.260;2022-10-16T00:56:15;0.88;;;0.50;;
75492;SDS011;64071;51.466;7.260;2022-10-16T01:01:07;1.55;;;0.50;;
75492;SDS011;64071;51.466;7.260;2022-10-16T01:03:34;0.57;;;0.32;;
75492;SDS011;64071;51.466;7.260;2022-10-16T01:08:52;0.60;;;0.45;;
75492;SDS011;64071;51.466;7.260;2022-10-16T01:14:36;1.10;;;0.60;;
75492;SDS011;64071;51.466;7.260;2022-10-16T01:17:36;0.75;;;0.50;;
75492;SDS011;64071;51.466;7.260;2022-10-16T01:25:23;0.88;;;0.50;;
75492;SDS011;64071;51.466;7.260;2022-10-16T01:27:57;0.60;;;0.47;;
75492;SDS011;64071;51.466;7.260;2022-10-16T01:30:26;0.60;;;0.45;;
75492;SDS011;64071;51.466;7.260;2022-10-16T01:33:09;0.45;;;0.45;;
75492;SDS011;64071;51.466;7.260;2022-10-16T01:35:43;0.60;;;0.40;;
75492;SDS011;64071;51.466;7.260;2022-10-16T01:38:16;0.85;;;0.50;;
75492;SDS011;64071;51.466;7.260;2022-10-16T01:40:46;0.55;;;0.50;;
75492;SDS011;64071;51.466;7.260;2022-10-16T01:43:24;0.98;;;0.40;;
75492;SDS011;64071;51.466;7.260;2022-10-16T01:45:53;0.70;;;0.50;;
75492;SDS011;64071;51.466;7.260;2022-10-16T01:48:19;0.55;;;0.50;;
75492;SDS011;64071;51.466;7.260;2022-10-16T01:50:54;0.60;;;0.50;;
75492;SDS011;64071;51.466;7.260;2022-10-16T01:53:28;0.82;;;0.60;;
75492;SDS011;64071;51.466;7.260;2022-10-16T01:55:54;1.10;;;0.60;;
75492;SDS011;64071;51.466;7.260;2022-10-16T01:58:22;0.85;;;0.73;;
75492;SDS011;64071;51.466;7.260;2022-10-16T02:00:50;0.55;;;0.47;;
75492;SDS011;64071;51.466;7.260;2022-10-16T02:03:19;0.63;;;0.60;;
75492;SDS011;64071;51.466;7.260;2022-10-16T02:08:16;0.77;;;0.52;;
75492;SDS011;64071;51.466;7.260;2022-10-16T02:10:42;0.40;;;0.40;;
75492;SDS011;64071;51.466;7.260;2022-10-16T02:13:09;0.40;;;0.40;;
75492;SDS011;64071;51.466;7.260;2022-10-16T02:15:38;0.73;;;0.55;;
75492;SDS011;64071;51.466;7.260;2022-10-16T02:18:04;0.90;;;0.47;;
75492;SDS011;64071;51.466;7.260;2022-10-16T02:20:32;0.73;;;0.60;;
75492;SDS011;64071;51.466;7.260;2022-10-16T02:23:02;0.45;;;0.40;;
75492;SDS011;64071;51.466;7.260;2022-10-16T02:25:33;0.75;;;0.50;;
75492;SDS011;64071;51.466;7.260;2022-10-16T02:28:03;0.60;;;0.40;;
75492;SDS011;64071;51.466;7.260;2022-10-16T02:33:13;0.80;;;0.57;;
75492;SDS011;64071;51.466;7.260;2022-10-16T02:35:40;1.30;;;0.55;;
75492;SDS011;64071;51.466;7.260;2022-10-16T02:38:06;0.50;;;0.50;;
75492;SDS011;64071;51.466;7.260;2022-10-16T02:40:34;0.65;;;0.60;;
75492;SDS011;64071;51.466;7.260;2022-10-16T02:45:28;0.57;;;0.40;;
75492;SDS011;64071;51.466;7.260;2022-10-16T02:47:54;1.40;;;0.60;;
75492;SDS011;64071;51.466;7.260;2022-10-16T02:50:19;1.73;;;0.63;;
75492;SDS011;64071;51.466;7.260;2022-10-16T02:52:45;0.93;;;0.52;;
75492;SDS011;64071;51.466;7.260;2022-10-16T02:55:10;3.85;;;1.20;;
75492;SDS011;64071;51.466;7.260;2022-10-16T02:57:36;0.32;;;0.30;;
75492;SDS011;64071;51.466;7.260;2022-10-16T03:00:03;0.65;;;0.50;;
75492;SDS011;64071;51.466;7.260;2022-10-16T03:02:30;0.70;;;0.70;;
75492;SDS011;64071;51.466;7.260;2022-10-16T03:04:55;0.82;;;0.50;;
75492;SDS011;64071;51.466;7.260;2022-10-16T03:07:21;0.95;;;0.50;;
75492;SDS011;64071;51.466;7.260;2022-10-16T03:09:46;1.77;;;1.02;;
75492;SDS011;64071;51.466;7.260;2022-10-16T03:12:12;0.85;;;0.63;;
75492;SDS011;64071;51.466;7.260;2022-10-16T03:14:38;0.45;;;0.40;;
75492;SDS011;64071;51.466;7.260;2022-10-16T03:17:04;0.90;;;0.70;;
75492;SDS011;64071;51.466;7.260;2022-10-16T03:19:30;0.93;;;0.50;;
75492;SDS011;64071;51.466;7.260;2022-10-16T03:21:59;1.55;;;0.52;;
75492;SDS011;64071;51.466;7.260;2022-10-16T03:24:25;1.88;;;0.90;;
75492;SDS011;64071;51.466;7.260;2022-10-16T03:26:50;0.82;;;0.82;;
75492;SDS011;64071;51.466;7.260;2022-10-16T03:29:16;0.40;;;0.40;;
75492;SDS011;64071;51.466;7.260;2022-10-16T03:31:41;1.30;;;0.60;;
75492;SDS011;64071;51.466;7.260;2022-10-16T03:34:07;0.98;;;0.68;;
75492;SDS011;64071;51.466;7.260;2022-10-16T03:36:33;1.05;;;0.43;;
75492;SDS011;64071;51.466;7.260;2022-10-16T03:38:58;0.77;;;0.50;;
75492;SDS011;64071;51.466;7.260;2022-10-16T03:41:24;0.88;;;0.40;;
75492;SDS011;64071;51.466;7.260;2022-10-16T03:43:49;0.50;;;0.40;;
75492;SDS011;64071;51.466;7.260;2022-10-16T03:46:15;0.90;;;0.60;;
75492;SDS011;64071;51.466;7.260;2022-10-16T03:48:40;0.50;;;0.50;;
75492;SDS011;64071;51.466;7.260;2022-10-16T03:51:06;0.82;;;0.50;;
75492;SDS011;64071;51.466;7.260;2022-10-16T03:53:32;0.75;;;0.60;;
75492;SDS011;64071;51.466;7.260;2022-10-16T03:55:57;0.77;;;0.50;;
75492;SDS011;64071;51.466;7.260;2022-10-16T03:58:23;0.75;;;0.60;;
75492;SDS011;64071;51.466;7.260;2022-10-16T04:00:49;1.30;;;0.68;;
75492;SDS011;64071;51.466;7.260;2022-10-16T04:03:14;0.73;;;0.40;;
75492;SDS011;64071;51.466;7.260;2022-10-16T04:05:40;0.57;;;0.47;;
75492;SDS011;64071;51.466;7.260;2022-10-16T04:08:06;0.70;;;0.47;;
75492;SDS011;64071;51.466;7.260;2022-10-16T04:10:32;0.60;;;0.43;;
75492;SDS011;64071;51.466;7.260;2022-10-16T04:12:57;0.50;;;0.40;;
75492;SDS011;64071;51.466;7.260;2022-10-16T04:15:23;0.60;;;0.40;;
75492;SDS011;64071;51.466;7.260;2022-10-16T04:17:49;1.02;;;0.50;;
75492;SDS011;64071;51.466;7.260;2022-10-16T04:20:15;0.93;;;0.57;;
75492;SDS011;64071;51.466;7.260;2022-10-16T04:22:41;1.55;;;0.73;;
75492;SDS011;64071;51.466;7.260;2022-10-16T04:25:06;1.20;;;0.60;;
75492;SDS011;64071;51.466;7.260;2022-10-16T04:27:32;1.10;;;0.50;;
75492;SDS011;64071;51.466;7.260;2022-10-16T04:29:58;0.63;;;0.45;;
75492;SDS011;64071;51.466;7.260;2022-10-16T04:32:24;0.47;;;0.40;;
75492;SDS011;64071;51.466;7.260;2022-10-16T04:34:50;0.50;;;0.50;;
75492;SDS011;64071;51.466;7.260;2022-10-16T04:37:16;1.08;;;0.63;;
75492;SDS011;64071;51.466;7.260;2022-10-16T04:39:41;0.50;;;0.40;;
75492;SDS011;64071;51.466;7.260;2022-10-16T04:42:07;0.82;;;0.50;;
75492;SDS011;64071;51.466;7.260;2022-10-16T04:44:32;0.80;;;0.40;;
75492;SDS011;64071;51.466;7.260;2022-10-16T04:46:58;1.50;;;0.40;;
75492;SDS011;64071;51.466;7.260;2022-10-16T04:49:23;0.85;;;0.40;;
75492;SDS011;64071;51.466;7.260;2022-10-16T04:51:49;0.70;;;0.43;;
75492;SDS011;64071;51.466;7.260;2022-10-16T04:54:14;0.32;;;0.32;;
75492;SDS011;64071;51.466;7.260;2022-10-16T04:56:40;0.50;;;0.40;;
75492;SDS011;64071;51.466;7.260;2022-10-16T04:59:12;0.85;;;0.60;;
75492;SDS011;64071;51.466;7.260;2022-10-16T05:01:41;0.43;;;0.40;;
75492;SDS011;64071;51.466;7.260;2022-10-16T05:04:06;1.23;;;0.60;;
75492;SDS011;64071;51.466;7.260;2022-10-16T05:06:32;1.27;;;0.60;;
75492;SDS011;64071;51.466;7.260;2022-10-16T05:08:58;0.55;;;0.50;;
75492;SDS011;64071;51.466;7.260;2022-10-16T05:11:23;0.50;;;0.50;;
75492;SDS011;64071;51.466;7.260;2022-10-16T05:13:49;0.90;;;0.40;;
75492;SDS011;64071;51.466;7.260;2022-10-16T05:16:14;0.73;;;0.50;;
75492;SDS011;64071;51.466;7.260;2022-10-16T05:18:40;0.77;;;0.50;;
75492;SDS011;64071;51.466;7.260;2022-10-16T05:21:06;0.60;;;0.60;;
75492;SDS011;64071;51.466;7.260;2022-10-16T05:23:31;0.50;;;0.50;;
75492;SDS011;64071;51.466;7.260;2022-10-16T05:25:57;0.50;;;0.50;;
75492;SDS011;64071;51.466;7.260;2022-10-16T05:28:28;1.13;;;0.70;;
75492;SDS011;64071;51.466;7.260;2022-10-16T05:30:55;0.90;;;0.47;;
75492;SDS011;64071;51.466;7.260;2022-10-16T05:33:21;0.80;;;0.60;;
75492;SDS011;64071;51.466;7.260;2022-10-16T05:35:48;1.08;;;0.40;;
75492;SDS011;64071;51.466;7.260;2022-10-16T05:40:40;0.82;;;0.52;;
75492;SDS011;64071;51.466;7.260;2022-10-16T05:43:06;1.15;;;0.70;;
75492;SDS011;64071;51.466;7.260;2022-10-16T05:45:31;0.98;;;0.60;;
75492;SDS011;64071;51.466;7.260;2022-10-16T05:47:57;2.25;;;0.50;;
75492;SDS011;64071;51.466;7.260;2022-10-16T05:50:22;1.15;;;0.60;;
75492;SDS011;64071;51.466;7.260;2022-10-16T05:52:48;1.17;;;0.50;;
75492;SDS011;64071;51.466;7.260;2022-10-16T05:55:13;0.95;;;0.60;;
75492;SDS011;64071;51.466;7.260;2022-10-16T05:57:40;1.15;;;0.70;;
75492;SDS011;64071;51.466;7.260;2022-10-16T06:00:06;1.00;;;0.50;;
75492;SDS011;64071;51.466;7.260;2022-10-16T06:02:32;0.80;;;0.47;;
75492;SDS011;64071;51.466;7.260;2022-10-16T06:04:57;0.60;;;0.50;;
75492;SDS011;64071;51.466;7.260;2022-10-16T06:07:23;1.48;;;0.65;;
75492;SDS011;64071;51.466;7.260;2022-10-16T06:09:49;1.10;;;0.60;;
75492;SDS011;64071;51.466;7.260;2022-10-16T06:12:15;0.95;;;0.63;;
75492;SDS011;64071;51.466;7.260;2022-10-16T06:14:41;0.73;;;0.60;;
75492;SDS011;64071;51.466;7.260;2022-10-16T06:17:07;0.60;;;0.47;;
75492;SDS011;64071;51.466;7.260;2022-10-16T06:19:32;1.35;;;0.65;;
75492;SDS011;64071;51.466;7.260;2022-10-16T06:21:58;0.77;;;0.50;;
75492;SDS011;64071;51.466;7.260;2022-10-16T06:24:24;0.98;;;0.60;;
75492;SDS011;64071;51.466;7.260;2022-10-16T06:26:50;1.77;;;0.68;;
75492;SDS011;64071;51.466;7.260;2022-10-16T06:29:15;0.90;;;0.70;;
75492;SDS011;64071;51.466;7.260;2022-10-16T06:31:41;1.30;;;0.70;;
75492;SDS011;64071;51.466;7.260;2022-10-16T06:34:08;1.25;;;0.70;;
75492;SDS011;64071;51.466;7.260;2022-10-16T06:36:35;0.80;;;0.50;;
75492;SDS011;64071;51.466;7.260;2022-10-16T06:39:02;0.88;;;0.50;;
75492;SDS011;64071;51.466;7.260;2022-10-16T06:41:28;0.70;;;0.38;;
75492;SDS011;64071;51.466;7.260;2022-10-16T06:43:54;1.10;;;0.60;;
75492;SDS011;64071;51.466;7.260;2022-10-16T06:46:21;1.20;;;0.70;;
75492;SDS011;64071;51.466;7.260;2022-10-16T06:48:48;1.25;;;0.90;;
75492;SDS011;64071;51.466;7.260;2022-10-16T06:51:16;0.90;;;0.60;;
75492;SDS011;64071;51.466;7.260;2022-10-16T06:53:44;1.58;;;0.70;;
75492;SDS011;64071;51.466;7.260;2022-10-16T06:56:13;1.15;;;0.60;;
75492;SDS011;64071;51.466;7.260;2022-10-16T06:58:40;1.15;;;0.55;;
75492;SDS011;64071;51.466;7.260;2022-10-16T07:01:06;0.68;;;0.60;;
75492;SDS011;64071;51.466;7.260;2022-10-16T07:03:33;1.42;;;0.60;;
75492;SDS011;64071;51.466;7.260;2022-10-16T07:06:01;1.80;;;0.70;;
75492;SDS011;64071;51.466;7.260;2022-10-16T07:08:30;1.38;;;0.57;;
75492;SDS011;64071;51.466;7.260;2022-10-16T07:10:58;1.75;;;0.80;;
75492;SDS011;64071;51.466;7.260;2022-10-16T07:13:24;0.73;;;0.63;;
75492;SDS011;64071;51.466;7.260;2022-10-16T07:15:50;0.60;;;0.52;;
75492;SDS011;64071;51.466;7.260;2022-10-16T07:18:15;1.20;;;0.60;;
75492;SDS011;64071;51.466;7.260;2022-10-16T07:20:41;0.68;;;0.43;;
75492;SDS011;64071;51.466;7.260;2022-10-16T07:23:06;0.88;;;0.60;;
75492;SDS011;64071;51.466;7.260;2022-10-16T07:25:32;1.10;;;0.50;;
75492;SDS011;64071;51.466;7.260;2022-10-16T07:27:57;0.75;;;0.43;;
75492;SDS011;64071;51.466;7.260;2022-10-16T07:30:23;0.65;;;0.50;;
75492;SDS011;64071;51.466;7.260;2022-10-16T07:32:49;1.52;;;0.63;;
75492;SDS011;64071;51.466;7.260;2022-10-16T07:35:14;1.10;;;0.68;;
75492;SDS011;64071;51.466;7.260;2022-10-16T07:37:43;0.80;;;0.57;;
75492;SDS011;64071;51.466;7.260;2022-10-16T07:40:10;0.80;;;0.60;;
75492;SDS011;64071;51.466;7.260;2022-10-16T07:42:36;1.83;;;0.65;;
75492;SDS011;64071;51.466;7.260;2022-10-16T07:45:02;1.10;;;0.73;;
75492;SDS011;64071;51.466;7.260;2022-10-16T07:47:28;0.70;;;0.70;;
75492;SDS011;64071;51.466;7.260;2022-10-16T07:49:53;0.88;;;0.60;;
75492;SDS011;64071;51.466;7.260;2022-10-16T07:52:19;1.13;;;0.60;;
75492;SDS011;64071;51.466;7.260;2022-10-16T07:54:44;0.93;;;0.55;;
75492;SDS011;64071;51.466;7.260;2022-10-16T07:57:10;0.65;;;0.60;;
75492;SDS011;64071;51.466;7.260;2022-10-16T07:59:35;1.00;;;0.40;;
75492;SDS011;64071;51.466;7.260;2022-10-16T08:02:01;0.80;;;0.50;;
75492;SDS011;64071;51.466;7.260;2022-10-16T08:04:26;0.50;;;0.50;;
75492;SDS011;64071;51.466;7.260;2022-10-16T08:06:52;1.65;;;0.90;;
75492;SDS011;64071;51.466;7.260;2022-10-16T08:09:19;0.60;;;0.50;;
75492;SDS011;64071;51.466;7.260;2022-10-16T08:11:44;1.08;;;0.50;;
75492;SDS011;64071;51.466;7.260;2022-10-16T08:14:10;1.00;;;0.60;;
75492;SDS011;64071;51.466;7.260;2022-10-16T08:16:35;0.73;;;0.50;;
75492;SDS011;64071;51.466;7.260;2022-10-16T08:19:01;1.13;;;0.73;;
75492;SDS011;64071;51.466;7.260;2022-10-16T08:21:27;1.13;;;0.68;;
75492;SDS011;64071;51.466;7.260;2022-10-16T08:23:53;0.95;;;0.60;;
75492;SDS011;64071;51.466;7.260;2022-10-16T08:26:20;1.13;;;0.60;;
75492;SDS011;64071;51.466;7.260;2022-10-16T08:28:46;1.00;;;0.52;;
75492;SDS011;64071;51.466;7.260;2022-10-16T08:31:15;1.25;;;0.70;;
75492;SDS011;64071;51.466;7.260;2022-10-16T08:33:42;0.93;;;0.40;;
75492;SDS011;64071;51.466;7.260;2022-10-16T08:36:10;0.80;;;0.70;;
75492;SDS011;64071;51.466;7.260;2022-10-16T08:38:36;1.52;;;0.70;;
75492;SDS011;64071;51.466;7.260;2022-10-16T08:41:27;2.15;;;0.73;;
75492;SDS011;64071;51.466;7.260;2022-10-16T08:45:08;1.05;;;0.60;;
75492;SDS011;64071;51.466;7.260;2022-10-16T08:49:36;2.55;;;0.85;;
75492;SDS011;64071;51.466;7.260;2022-10-16T08:52:07;1.10;;;0.50;;
75492;SDS011;64071;51.466;7.260;2022-10-16T08:54:37;1.08;;;0.75;;
75492;SDS011;64071;51.466;7.260;2022-10-16T08:57:11;1.40;;;0.68;;
75492;SDS011;64071;51.466;7.260;2022-10-16T08:59:47;0.60;;;0.43;;
75492;SDS011;64071;51.466;7.260;2022-10-16T09:02:22;1.17;;;0.60;;
75492;SDS011;64071;51.466;7.260;2022-10-16T09:05:10;0.60;;;0.50;;
75492;SDS011;64071;51.466;7.260;2022-10-16T09:07:46;1.33;;;0.55;;
75492;SDS011;64071;51.466;7.260;2022-10-16T09:10:24;0.95;;;0.60;;
75492;SDS011;64071;51.466;7.260;2022-10-16T09:16:11;0.68;;;0.50;;
75492;SDS011;64071;51.466;7.260;2022-10-16T09:19:05;1.05;;;0.68;;
75492;SDS011;64071;51.466;7.260;2022-10-16T09:21:35;1.38;;;0.52;;
75492;SDS011;64071;51.466;7.260;2022-10-16T09:24:23;0.82;;;0.50;;
75492;SDS011;64071;51.466;7.260;2022-10-16T09:26:51;0.95;;;0.60;;
75492;SDS011;64071;51.466;7.260;2022-10-16T09:29:17;1.45;;;0.60;;
75492;SDS011;64071;51.466;7.260;2022-10-16T09:31:45;0.68;;;0.52;;
75492;SDS011;64071;51.466;7.260;2022-10-16T09:36:59;0.68;;;0.63;;
75492;SDS011;64071;51.466;7.260;2022-10-16T09:39:28;0.90;;;0.60;;
75492;SDS011;64071;51.466;7.260;2022-10-16T09:41:53;1.15;;;0.68;;
75492;SDS011;64071;51.466;7.260;2022-10-16T09:44:28;0.88;;;0.60;;
75492;SDS011;64071;51.466;7.260;2022-10-16T09:47:02;1.15;;;0.40;;
75492;SDS011;64071;51.466;7.260;2022-10-16T09:49:38;1.17;;;0.47;;
75492;SDS011;64071;51.466;7.260;2022-10-16T09:52:13;0.70;;;0.70;;
75492;SDS011;64071;51.466;7.260;2022-10-16T09:54:52;0.60;;;0.60;;
75492;SDS011;64071;51.466;7.260;2022-10-16T09:57:20;0.70;;;0.60;;
75492;SDS011;64071;51.466;7.260;2022-10-16T09:59:48;0.73;;;0.63;;
75492;SDS011;64071;51.466;7.260;2022-10-16T10:02:16;1.10;;;0.52;;
75492;SDS011;64071;51.466;7.260;2022-10-16T10:04:47;2.17;;;0.63;;
75492;SDS011;64071;51.466;7.260;2022-10-16T10:07:23;0.43;;;0.40;;
75492;SDS011;64071;51.466;7.260;2022-10-16T10:09:58;0.50;;;0.50;;
75492;SDS011;64071;51.466;7.260;2022-10-16T10:14:52;1.20;;;0.40;;
75492;SDS011;64071;51.466;7.260;2022-10-16T10:17:21;1.13;;;0.57;;
75492;SDS011;64071;51.466;7.260;2022-10-16T10:19:55;0.57;;;0.40;;
75492;SDS011;64071;51.466;7.260;2022-10-16T10:22:24;0.80;;;0.47;;
75492;SDS011;64071;51.466;7.260;2022-10-16T10:35:44;0.55;;;0.40;;
75492;SDS011;64071;51.466;7.260;2022-10-16T10:55:14;0.57;;;0.35;;
75492;SDS011;64071;51.466;7.260;2022-10-16T10:57:51;2.25;;;0.70;;
75492;SDS011;64071;51.466;7.260;2022-10-16T11:05:37;1.27;;;0.60;;
75492;SDS011;64071;51.466;7.260;2022-10-16T11:11:14;1.35;;;0.60;;
75492;SDS011;64071;51.466;7.260;2022-10-16T11:16:41;1.58;;;0.40;;
75492;SDS011;64071;51.466;7.260;2022-10-16T11:21:47;0.63;;;0.40;;
75492;SDS011;64071;51.466;7.260;2022-10-16T11:24:40;0.50;;;0.50;;
75492;SDS011;64071;51.466;7.260;2022-10-16T11:27:18;0.57;;;0.40;;
75492;SDS011;64071;51.466;7.260;2022-10-16T11:29:57;0.45;;;0.32;;
75492;SDS011;64071;51.466;7.260;2022-10-16T11:32:31;0.82;;;0.52;;
75492;SDS011;64071;51.466;7.260;2022-10-16T11:35:04;0.88;;;0.60;;
75492;SDS011;64071;51.466;7.260;2022-10-16T11:37:41;0.73;;;0.50;;
75492;SDS011;64071;51.466;7.260;2022-10-16T11:40:17;0.85;;;0.60;;
75492;SDS011;64071;51.466;7.260;2022-10-16T11:42:58;0.85;;;0.60;;
75492;SDS011;64071;51.466;7.260;2022-10-16T11:45:34;0.68;;;0.40;;
75492;SDS011;64071;51.466;7.260;2022-10-16T11:50:52;0.95;;;0.50;;
75492;SDS011;64071;51.466;7.260;2022-10-16T11:56:03;1.77;;;0.60;;
75492;SDS011;64071;51.466;7.260;2022-10-16T12:01:22;0.75;;;0.50;;
75492;SDS011;64071;51.466;7.260;2022-10-16T12:06:26;0.73;;;0.50;;
75492;SDS011;64071;51.466;7.260;2022-10-16T12:08:59;1.52;;;0.93;;
75492;SDS011;64071;51.466;7.260;2022-10-16T12:13:51;0.47;;;0.45;;
75492;SDS011;64071;51.466;7.260;2022-10-16T12:16:28;1.30;;;0.50;;
75492;SDS011;64071;51.466;7.260;2022-10-16T12:21:50;1.33;;;0.60;;
75492;SDS011;64071;51.466;7.260;2022-10-16T12:26:52;1.25;;;0.55;;
75492;SDS011;64071;51.466;7.260;2022-10-16T12:35:01;0.65;;;0.45;;
75492;SDS011;64071;51.466;7.260;2022-10-16T12:37:35;0.52;;;0.40;;
75492;SDS011;64071;51.466;7.260;2022-10-16T12:40:12;1.00;;;0.70;;
75492;SDS011;64071;51.466;7.260;2022-10-16T12:42:53;1.98;;;0.40;;
75492;SDS011;64071;51.466;7.260;2022-10-16T12:47:56;0.95;;;0.57;;
75492;SDS011;64071;51.466;7.260;2022-10-16T12:52:56;1.98;;;0.80;;
75492;SDS011;64071;51.466;7.260;2022-10-16T12:55:23;0.63;;;0.63;;
75492;SDS011;64071;51.466;7.260;2022-10-16T13:16:17;0.50;;;0.40;;
75492;SDS011;64071;51.466;7.260;2022-10-16T13:19:06;0.77;;;0.40;;
75492;SDS011;64071;51.466;7.260;2022-10-16T13:33:00;0.70;;;0.43;;
75492;SDS011;64071;51.466;7.260;2022-10-16T13:35:30;0.52;;;0.47;;
75492;SDS011;64071;51.466;7.260;2022-10-16T13:38:13;1.58;;;0.68;;
75492;SDS011;64071;51.466;7.260;2022-10-16T13:40:57;1.10;;;0.50;;
75492;SDS011;64071;51.466;7.260;2022-10-16T13:43:32;0.70;;;0.45;;
75492;SDS011;64071;51.466;7.260;2022-10-16T13:46:05;0.52;;;0.52;;
75492;SDS011;64071;51.466;7.260;2022-10-16T13:48:32;0.65;;;0.43;;
75492;SDS011;64071;51.466;7.260;2022-10-16T13:50:59;2.00;;;0.70;;
75492;SDS011;64071;51.466;7.260;2022-10-16T13:53:26;0.95;;;0.50;;
75492;SDS011;64071;51.466;7.260;2022-10-16T13:55:52;0.90;;;0.60;;
75492;SDS011;64071;51.466;7.260;2022-10-16T13:58:18;0.50;;;0.32;;
75492;SDS011;64071;51.466;7.260;2022-10-16T14:00:57;1.45;;;0.60;;
75492;SDS011;64071;51.466;7.260;2022-10-16T14:03:24;0.88;;;0.40;;
75492;SDS011;64071;51.466;7.260;2022-10-16T14:05:55;0.50;;;0.43;;
75492;SDS011;64071;51.466;7.260;2022-10-16T14:08:25;1.17;;;0.43;;
75492;SDS011;64071;51.466;7.260;2022-10-16T14:10:54;0.52;;;0.50;;
75492;SDS011;64071;51.466;7.260;2022-10-16T14:13:28;0.30;;;0.20;;
75492;SDS011;64071;51.466;7.260;2022-10-16T14:16:02;1.80;;;0.55;;
75492;SDS011;64071;51.466;7.260;2022-10-16T14:18:33;1.02;;;0.70;;
75492;SDS011;64071;51.466;7.260;2022-10-16T14:21:04;1.13;;;0.50;;
75492;SDS011;64071;51.466;7.260;2022-10-16T14:23:34;1.95;;;0.50;;
75492;SDS011;64071;51.466;7.260;2022-10-16T14:28:34;1.13;;;0.60;;
75492;SDS011;64071;51.466;7.260;2022-10-16T14:31:02;1.45;;;0.60;;
75492;SDS011;64071;51.466;7.260;2022-10-16T14:33:49;1.48;;;0.43;;
75492;SDS011;64071;51.466;7.260;2022-10-16T14:36:15;1.10;;;0.40;;
75492;SDS011;64071;51.466;7.260;2022-10-16T14:39:05;1.02;;;0.80;;
75492;SDS011;64071;51.466;7.260;2022-10-16T14:41:44;1.80;;;0.60;;
75492;SDS011;64071;51.466;7.260;2022-10-16T14:44:12;1.23;;;0.60;;
75492;SDS011;64071;51.466;7.260;2022-10-16T14:51:33;0.70;;;0.50;;
75492;SDS011;64071;51.466;7.260;2022-10-16T14:53:59;1.90;;;0.50;;
75492;SDS011;64071;51.466;7.260;2022-10-16T14:56:28;1.02;;;0.60;;
75492;SDS011;64071;51.466;7.260;2022-10-16T14:58:55;2.88;;;0.75;;
75492;SDS011;64071;51.466;7.260;2022-10-16T15:01:22;1.98;;;0.77;;
75492;SDS011;64071;51.466;7.260;2022-10-16T15:03:47;3.22;;;0.65;;
75492;SDS011;64071;51.466;7.260;2022-10-16T15:06:14;0.90;;;0.60;;
75492;SDS011;64071;51.466;7.260;2022-10-16T15:08:40;1.00;;;0.50;;
75492;SDS011;64071;51.466;7.260;2022-10-16T15:11:13;1.88;;;0.65;;
75492;SDS011;64071;51.466;7.260;2022-10-16T15:13:40;1.45;;;0.50;;
75492;SDS011;64071;51.466;7.260;2022-10-16T15:16:08;2.78;;;0.75;;
75492;SDS011;64071;51.466;7.260;2022-10-16T15:18:36;1.48;;;0.50;;
75492;SDS011;64071;51.466;7.260;2022-10-16T15:21:02;0.98;;;0.50;;
75492;SDS011;64071;51.466;7.260;2022-10-16T15:23:27;1.02;;;0.60;;
75492;SDS011;64071;51.466;7.260;2022-10-16T15:25:54;0.68;;;0.50;;
75492;SDS011;64071;51.466;7.260;2022-10-16T15:28:21;1.27;;;0.60;;
75492;SDS011;64071;51.466;7.260;2022-10-16T15:30:51;1.17;;;1.00;;
75492;SDS011;64071;51.466;7.260;2022-10-16T15:33:19;1.50;;;0.60;;
75492;SDS011;64071;51.466;7.260;2022-10-16T15:35:51;1.52;;;0.82;;
75492;SDS011;64071;51.466;7.260;2022-10-16T15:38:18;2.40;;;0.70;;
75492;SDS011;64071;51.466;7.260;2022-10-16T15:40:45;1.35;;;0.80;;
75492;SDS011;64071;51.466;7.260;2022-10-16T15:43:12;1.20;;;0.60;;
75492;SDS011;64071;51.466;7.260;2022-10-16T15:45:37;1.77;;;0.80;;
75492;SDS011;64071;51.466;7.260;2022-10-16T15:48:03;1.75;;;0.93;;
75492;SDS011;64071;51.466;7.260;2022-10-16T15:52:57;1.58;;;0.88;;
75492;SDS011;64071;51.466;7.260;2022-10-16T15:55:23;2.50;;;1.10;;
75492;SDS011;64071;51.466;7.260;2022-10-16T15:57:49;1.67;;;1.05;;
75492;SDS011;64071;51.466;7.260;2022-10-16T16:00:16;1.77;;;1.20;;
75492;SDS011;64071;51.466;7.260;2022-10-16T16:02:50;2.03;;;1.08;;
75492;SDS011;64071;51.466;7.260;2022-10-16T16:05:17;2.63;;;1.20;;
75492;SDS011;64071;51.466;7.260;2022-10-16T16:07:42;4.55;;;1.40;;
75492;SDS011;64071;51.466;7.260;2022-10-16T16:10:09;2.53;;;0.95;;
75492;SDS011;64071;51.466;7.260;2022-10-16T16:12:35;2.83;;;1.20;;
75492;SDS011;64071;51.466;7.260;2022-10-16T16:15:02;2.45;;;1.27;;
75492;SDS011;64071;51.466;7.260;2022-10-16T16:17:30;2.22;;;1.15;;
75492;SDS011;64071;51.466;7.260;2022-10-16T16:19:56;2.28;;;1.33;;
75492;SDS011;64071;51.466;7.260;2022-10-16T16:22:21;2.13;;;1.23;;
75492;SDS011;64071;51.466;7.260;2022-10-16T16:24:47;2.63;;;1.48;;
75492;SDS011;64071;51.466;7.260;2022-10-16T16:27:12;2.92;;;1.40;;
75492;SDS011;64071;51.466;7.260;2022-10-16T16:29:38;2.80;;;1.27;;
75492;SDS011;64071;51.466;7.260;2022-10-16T16:32:04;1.77;;;1.30;;
75492;SDS011;64071;51.466;7.260;2022-10-16T16:34:30;3.00;;;1.35;;
75492;SDS011;64071;51.466;7.260;2022-10-16T16:36:56;3.10;;;1.30;;
75492;SDS011;64071;51.466;7.260;2022-10-16T16:39:22;2.55;;;1.52;;
75492;SDS011;64071;51.466;7.260;2022-10-16T16:44:14;2.80;;;1.60;;
75492;SDS011;64071;51.466;7.260;2022-10-16T16:46:41;3.38;;;1.67;;
75492;SDS011;64071;51.466;7.260;2022-10-16T16:49:09;2.95;;;1.55;;
75492;SDS011;64071;51.466;7.260;2022-10-16T16:51:36;3.00;;;1.45;;
75492;SDS011;64071;51.466;7.260;2022-10-16T16:54:02;4.85;;;1.60;;
75492;SDS011;64071;51.466;7.260;2022-10-16T16:56:27;4.13;;;1.58;;
75492;SDS011;64071;51.466;7.260;2022-10-16T16:58:54;3.42;;;1.50;;
75492;SDS011;64071;51.466;7.260;2022-10-16T17:01:21;1.92;;;1.30;;
75492;SDS011;64071;51.466;7.260;2022-10-16T17:03:52;5.70;;;2.00;;
75492;SDS011;64071;51.466;7.260;2022-10-16T17:06:20;3.22;;;1.52;;
75492;SDS011;64071;51.466;7.260;2022-10-16T17:08:50;3.30;;;1.63;;
75492;SDS011;64071;51.466;7.260;2022-10-16T17:11:20;3.20;;;1.60;;
75492;SDS011;64071;51.466;7.260;2022-10-16T17:13:47;2.47;;;1.50;;
75492;SDS011;64071;51.466;7.260;2022-10-16T17:18:38;2.08;;;1.27;;
75492;SDS011;64071;51.466;7.260;2022-10-16T17:21:06;2.88;;;1.50;;
75492;SDS011;64071;51.466;7.260;2022-10-16T17:23:33;4.85;;;1.50;;
75492;SDS011;64071;51.466;7.260;2022-10-16T17:26:04;3.45;;;1.20;;
75492;SDS011;64071;51.466;7.260;2022-10-16T17:28:35;2.92;;;1.33;;
75492;SDS011;64071;51.466;7.260;2022-10-16T17:31:34;3.35;;;1.52;;
75492;SDS011;64071;51.466;7.260;2022-10-16T17:33:57;3.00;;;1.50;;